Time;durP1;ratioP1;P1;durP2;ratioP2;P2;SDS_P1;SDS_P2;PMS_P1;PMS_P2;Temp;Humidity;BMP_temperature;BMP_pressure;BME280_temperature;BME280_humidity;BME280_pressure;Samples;Min_cycle;Max_cycle;Signal;HPM_P1;HPM_P2
2023/12/23 00:02:25;;;;;;;;;;;;;;;0.23;89.84;96562.73;435374;1254;125915;-63
2023/12/23 00:12:29;;;;;;;;;;;;;;;0.21;89.15;96573.23;434926;1250;125117;-66
2023/12/23 00:22:34;;;;;;;;;;;;;;;0.19;88.93;96577.65;434902;1253;125645;-63
2023/12/23 00:32:39;;;;;;;;;;;;;;;0.16;89.14;96596.60;434714;1251;125593;-66
2023/12/23 00:42:44;;;;;;;;;;;;;;;0.12;89.38;96616.83;434895;1254;125863;-67
2023/12/23 00:52:48;;;;;;;;;;;;;;;0.07;89.55;96624.06;434816;1254;126128;-71
2023/12/23 01:02:53;;;;;;;;;;;;;;;0.02;89.91;96627.33;437073;1254;125656;-67
2023/12/23 01:12:57;;;;;;;;;;;;;;;-0.02;89.87;96637.20;434850;1253;125394;-68
2023/12/23 01:23:02;;;;;;;;;;;;;;;-0.05;89.80;96644.80;434714;1253;125816;-67
2023/12/23 01:33:07;;;;;;;;;;;;;;;-0.17;89.60;96648.92;435545;1251;126861;-67
2023/12/23 01:43:12;;;;;;;;;;;;;;;-0.30;89.78;96658.89;435498;1254;126013;-68
2023/12/23 01:53:17;;;;;;;;;;;;;;;-0.39;89.94;96672.19;434829;1250;126132;-67
2023/12/23 02:03:23;;;;;;;;;;;;;;;-0.48;90.23;96689.30;434848;1251;125691;-68
2023/12/23 02:13:30;;;;;;;;;;;;;;;-0.49;90.31;96702.23;435709;1251;125705;-68
2023/12/23 02:23:34;;;;;;;;;;;;;;;-0.49;90.31;96708.28;435702;1253;127435;-69
2023/12/23 02:33:39;;;;;;;;;;;;;;;-0.49;90.25;96716.83;435323;1253;126250;-68
2023/12/23 02:43:43;;;;;;;;;;;;;;;-0.54;89.83;96724.90;435827;1250;125373;-67
2023/12/23 02:53:48;;;;;;;;;;;;;;;-0.67;89.82;96744.80;435430;1254;125532;-68
2023/12/23 03:03:52;;;;;;;;;;;;;;;-0.70;90.00;96755.09;435043;1255;125966;-67
2023/12/23 03:13:56;;;;;;;;;;;;;;;-0.77;89.89;96765.50;435852;1254;126094;-67
2023/12/23 03:24:01;;;;;;;;;;;;;;;-1.08;89.73;96777.39;436751;1254;127243;-68
2023/12/23 03:34:06;;;;;;;;;;;;;;;-1.41;89.94;96787.95;437929;1253;125879;-68
2023/12/23 03:44:10;;;;;;;;;;;;;;;-1.64;90.17;96815.41;435086;1251;128875;-67
2023/12/23 03:54:15;;;;;;;;;;;;;;;-1.66;90.71;96840.90;435071;1251;125566;-68
2023/12/23 04:04:20;;;;;;;;;;;;;;;-1.62;91.09;96857.83;435202;1251;126751;-67
2023/12/23 04:14:24;;;;;;;;;;;;;;;-1.71;90.77;96883.75;435978;1250;126203;-69
2023/12/23 04:24:29;;;;;;;;;;;;;;;-1.81;90.86;96911.91;436347;1253;126146;-68
2023/12/23 04:34:33;;;;;;;;;;;;;;;-1.88;91.29;96922.61;435455;1255;126192;-68
2023/12/23 04:44:37;;;;;;;;;;;;;;;-1.95;91.12;96945.79;436686;1250;126738;-68
2023/12/23 04:54:42;;;;;;;;;;;;;;;-2.06;91.60;96967.81;437013;1250;125906;-67
2023/12/23 05:04:47;;;;;;;;;;;;;;;-2.11;91.79;96991.06;435271;1250;127147;-67
2023/12/23 05:14:51;;;;;;;;;;;;;;;-2.10;92.17;97006.92;435350;1253;126328;-66
2023/12/23 05:24:56;;;;;;;;;;;;;;;-2.05;92.06;97013.70;434866;1251;126733;-67
2023/12/23 05:35:00;;;;;;;;;;;;;;;-1.97;92.07;97024.23;434915;1250;126382;-67
2023/12/23 05:45:06;;;;;;;;;;;;;;;-1.85;92.11;97041.95;434912;1250;127415;-67
2023/12/23 05:55:10;;;;;;;;;;;;;;;-1.77;92.00;97066.38;435090;1255;125848;-68
2023/12/23 06:05:15;;;;;;;;;;;;;;;-1.67;92.32;97081.80;434905;1251;125510;-67
2023/12/23 06:15:20;;;;;;;;;;;;;;;-1.70;91.99;97084.20;435030;1251;126835;-67
2023/12/23 06:25:25;;;;;;;;;;;;;;;-1.71;92.29;97100.54;435224;1250;125438;-68
2023/12/23 06:35:29;;;;;;;;;;;;;;;-1.71;92.74;97116.98;435244;1251;125544;-68
2023/12/23 06:45:34;;;;;;;;;;;;;;;-1.78;92.60;97119.95;435543;1253;126207;-67
2023/12/23 06:55:38;;;;;;;;;;;;;;;-1.87;92.76;97127.48;435299;1251;126185;-67
2023/12/23 07:05:43;;;;;;;;;;;;;;;-1.91;93.27;97129.77;434897;1255;127746;-68
2023/12/23 07:15:48;;;;;;;;;;;;;;;-1.85;93.78;97141.59;436872;1255;125714;-68
2023/12/23 07:25:52;;;;;;;;;;;;;;;-1.56;93.55;97159.96;435044;1250;125645;-67
2023/12/23 07:35:57;;;;;;;;;;;;;;;-0.85;93.75;97158.31;435019;1255;125551;-67
2023/12/23 07:46:01;;;;;;;;;;;;;;;-0.52;92.95;97164.92;435171;1256;125811;-66
2023/12/23 07:56:06;;;;;;;;;;;;;;;0.39;93.12;97157.27;435599;1254;126140;-66
2023/12/23 08:06:12;;;;;;;;;;;;;;;2.75;92.39;97160.48;435267;1250;125330;-66
2023/12/23 08:16:16;;;;;;;;;;;;;;;5.03;88.58;97162.30;435966;1256;124917;-68
2023/12/23 08:26:21;;;;;;;;;;;;;;;4.80;84.98;97154.44;435184;1256;124927;-66
2023/12/23 08:36:26;;;;;;;;;;;;;;;3.94;84.29;97166.59;435268;1256;125471;-67
2023/12/23 08:46:31;;;;;;;;;;;;;;;3.82;83.59;97166.59;436923;1254;125040;-68
2023/12/23 08:56:39;;;;;;;;;;;;;;;3.66;84.23;97169.33;435333;1253;124866;-66
2023/12/23 09:06:43;;;;;;;;;;;;;;;4.66;83.26;97168.84;435067;1256;125498;-67
2023/12/23 09:16:48;;;;;;;;;;;;;;;3.71;81.36;97175.69;435489;1256;125143;-62
2023/12/23 09:26:52;;;;;;;;;;;;;;;2.55;81.98;97181.34;435615;1255;126695;-62
2023/12/23 09:36:57;;;;;;;;;;;;;;;1.88;83.16;97175.01;435554;1254;125619;-63
2023/12/23 09:47:01;;;;;;;;;;;;;;;1.70;84.43;97179.34;435550;1256;125671;-63
2023/12/23 09:57:07;;;;;;;;;;;;;;;1.64;84.54;97178.52;435121;1257;124887;-63
2023/12/23 10:07:12;;;;;;;;;;;;;;;1.28;84.86;97174.34;436853;1255;125736;-73
2023/12/23 10:17:17;;;;;;;;;;;;;;;1.16;85.96;97161.45;435223;1254;126257;-73
2023/12/23 10:27:22;;;;;;;;;;;;;;;1.15;86.14;97157.23;435259;1251;125603;-69
2023/12/23 10:37:27;;;;;;;;;;;;;;;1.09;86.76;97147.06;434743;1251;125516;-68
2023/12/23 10:47:32;;;;;;;;;;;;;;;1.12;87.48;97147.25;438303;1251;126327;-68
2023/12/23 10:57:37;;;;;;;;;;;;;;;1.07;87.45;97133.46;435298;1251;126685;-69
2023/12/23 11:07:44;;;;;;;;;;;;;;;1.37;88.05;97132.02;435919;1251;126055;-68
2023/12/23 11:17:49;;;;;;;;;;;;;;;1.50;87.77;97127.86;435901;1254;125538;-69
2023/12/23 11:28:08;;;;;;;;;;;;;;;1.45;87.97;97122.02;435834;1252;126272;-68
2023/12/23 11:38:13;;;;;;;;;;;;;;;1.34;87.98;97122.40;438916;1254;126202;-67
2023/12/23 11:48:20;;;;;;;;;;;;;;;1.18;88.29;97123.92;436394;1254;125621;-67
2023/12/23 11:58:26;;;;;;;;;;;;;;;1.09;88.59;97123.63;436169;1251;127051;-69
2023/12/23 12:08:31;;;;;;;;;;;;;;;1.00;88.73;97128.20;436290;1254;125172;-68
2023/12/23 12:18:36;;;;;;;;;;;;;;;0.96;89.24;97134.64;436255;1254;126421;-68
2023/12/23 12:28:40;;;;;;;;;;;;;;;0.95;89.40;97134.70;437249;1254;126155;-70
2023/12/23 12:38:49;;;;;;;;;;;;;;;1.00;89.88;97137.67;435884;1254;125981;-65
2023/12/23 12:48:55;;;;;;;;;;;;;;;1.05;90.21;97145.45;437637;1254;125934;-64
2023/12/23 12:58:59;;;;;;;;;;;;;;;1.03;90.78;97150.41;435775;1251;125687;-65
2023/12/23 13:09:05;;;;;;;;;;;;;;;0.94;91.07;97167.48;436543;1253;126098;-64
2023/12/23 13:19:09;;;;;;;;;;;;;;;0.86;91.81;97178.88;436592;1251;126190;-65
2023/12/23 13:29:16;;;;;;;;;;;;;;;0.82;92.67;97181.89;436355;1251;126960;-63
2023/12/23 13:39:21;;;;;;;;;;;;;;;0.79;92.88;97187.73;436739;1254;125374;-65
2023/12/23 13:49:26;;;;;;;;;;;;;;;0.76;93.22;97193.63;436687;1251;126212;-65
2023/12/23 13:59:30;;;;;;;;;;;;;;;0.72;93.58;97196.95;435529;1251;128523;-64
2023/12/23 14:09:35;;;;;;;;;;;;;;;0.57;93.68;97206.16;435604;1254;125506;-63
2023/12/23 14:19:39;;;;;;;;;;;;;;;0.49;94.17;97225.41;435512;1254;127494;-64
2023/12/23 14:29:48;;;;;;;;;;;;;;;0.47;94.86;97228.10;435035;1251;125453;-64
2023/12/23 14:39:53;;;;;;;;;;;;;;;0.32;94.97;97227.21;435435;1251;128028;-64
2023/12/23 14:49:58;;;;;;;;;;;;;;;0.09;95.27;97246.86;435465;1254;126358;-64
2023/12/23 15:00:03;;;;;;;;;;;;;;;0.03;95.83;97265.25;435144;1254;125421;-64
2023/12/23 15:10:08;;;;;;;;;;;;;;;0.05;96.56;97280.81;435204;1254;126439;-65
2023/12/23 15:20:13;;;;;;;;;;;;;;;0.09;97.03;97293.11;435904;1254;126235;-63
2023/12/23 15:30:18;;;;;;;;;;;;;;;0.17;97.93;97307.48;435396;1254;125253;-65
2023/12/23 15:40:22;;;;;;;;;;;;;;;0.12;98.83;97331.82;435239;1254;125836;-65
2023/12/23 15:50:27;;;;;;;;;;;;;;;0.12;99.60;97374.33;435619;1251;126339;-63
2023/12/23 16:00:31;;;;;;;;;;;;;;;0.02;100.00;97404.66;435361;1251;125424;-65
2023/12/23 16:10:36;;;;;;;;;;;;;;;-0.12;100.00;97421.08;435157;1251;126724;-63
2023/12/23 16:20:40;;;;;;;;;;;;;;;-0.18;100.00;97435.70;434995;1253;130519;-64
2023/12/23 16:30:44;;;;;;;;;;;;;;;-0.24;100.00;97444.80;435153;1254;125880;-65
2023/12/23 16:40:49;;;;;;;;;;;;;;;-0.29;100.00;97451.59;434999;1250;125643;-63
2023/12/23 16:50:54;;;;;;;;;;;;;;;-0.30;100.00;97462.08;435118;1254;125893;-64
2023/12/23 17:00:59;;;;;;;;;;;;;;;-0.26;100.00;97475.70;436258;1251;125768;-65
2023/12/23 17:11:04;;;;;;;;;;;;;;;-0.25;100.00;97485.05;435401;1254;127224;-64
2023/12/23 17:21:12;;;;;;;;;;;;;;;-0.28;100.00;97505.86;436001;1250;126170;-64
2023/12/23 17:31:17;;;;;;;;;;;;;;;-0.29;100.00;97522.05;436218;1253;126002;-65
2023/12/23 17:41:21;;;;;;;;;;;;;;;-0.27;100.00;97533.64;435090;1254;126932;-64
2023/12/23 17:51:25;;;;;;;;;;;;;;;-0.29;100.00;97532.02;435354;1254;125863;-64
2023/12/23 18:01:30;;;;;;;;;;;;;;;-0.29;100.00;97546.98;434885;1250;127626;-64
2023/12/23 18:11:34;;;;;;;;;;;;;;;-0.27;100.00;97558.45;435683;1251;125697;-64
2023/12/23 18:21:39;;;;;;;;;;;;;;;-0.26;100.00;97565.27;435201;1254;125967;-64
2023/12/23 18:31:44;;;;;;;;;;;;;;;-0.27;100.00;97576.15;435188;1254;125713;-66
2023/12/23 18:41:48;;;;;;;;;;;;;;;-0.34;100.00;97590.05;435061;1251;126678;-64
2023/12/23 18:51:53;;;;;;;;;;;;;;;-0.33;100.00;97600.85;434938;1250;126683;-64
2023/12/23 19:01:57;;;;;;;;;;;;;;;-0.30;100.00;97608.59;439134;1251;126301;-64
2023/12/23 19:12:03;;;;;;;;;;;;;;;-0.29;100.00;97613.89;437187;1250;125699;-65
2023/12/23 19:22:07;;;;;;;;;;;;;;;-0.29;100.00;97627.48;435153;1251;127505;-64
2023/12/23 19:32:12;;;;;;;;;;;;;;;-0.31;100.00;97640.27;434578;1253;126488;-65
2023/12/23 19:42:17;;;;;;;;;;;;;;;-0.32;100.00;97653.23;435546;1250;126563;-64
2023/12/23 19:52:21;;;;;;;;;;;;;;;-0.34;100.00;97669.33;435306;1250;126363;-65
2023/12/23 20:02:26;;;;;;;;;;;;;;;-0.36;100.00;97679.06;435166;1253;125930;-64
2023/12/23 20:12:30;;;;;;;;;;;;;;;-0.37;100.00;97685.50;435284;1254;126825;-64
2023/12/23 20:22:34;;;;;;;;;;;;;;;-0.39;100.00;97705.00;435523;1251;125816;-65
2023/12/23 20:32:39;;;;;;;;;;;;;;;-0.39;100.00;97720.33;436075;1250;126710;-64
2023/12/23 20:42:44;;;;;;;;;;;;;;;-0.37;100.00;97721.25;435774;1252;125696;-65
2023/12/23 20:52:48;;;;;;;;;;;;;;;-0.38;100.00;97722.30;435114;1253;126845;-66
2023/12/23 21:02:53;;;;;;;;;;;;;;;-0.36;100.00;97739.92;435230;1250;126835;-64
2023/12/23 21:12:59;;;;;;;;;;;;;;;-0.33;100.00;97753.21;436940;1253;125797;-65
2023/12/23 21:23:04;;;;;;;;;;;;;;;-0.30;100.00;97763.71;436440;1250;126807;-65
2023/12/23 21:33:09;;;;;;;;;;;;;;;-0.33;100.00;97769.84;435695;1251;125762;-65
2023/12/23 21:43:13;;;;;;;;;;;;;;;-0.36;100.00;97774.98;435647;1251;125721;-64
2023/12/23 21:53:17;;;;;;;;;;;;;;;-0.37;100.00;97785.73;435435;1251;125959;-65
2023/12/23 22:03:24;;;;;;;;;;;;;;;-0.41;100.00;97796.19;435628;1253;126991;-64
2023/12/23 22:13:28;;;;;;;;;;;;;;;-0.42;100.00;97796.42;436468;1254;126445;-64
2023/12/23 22:23:32;;;;;;;;;;;;;;;-0.45;100.00;97791.44;435567;1251;125874;-65
2023/12/23 22:33:37;;;;;;;;;;;;;;;-0.57;100.00;97792.67;435460;1251;127164;-66
2023/12/23 22:43:42;;;;;;;;;;;;;;;-0.63;100.00;97800.19;436474;1250;126271;-64
2023/12/23 22:53:46;;;;;;;;;;;;;;;-0.64;100.00;97807.09;435186;1251;128388;-65
2023/12/23 23:03:51;;;;;;;;;;;;;;;-0.59;100.00;97810.31;435345;1254;126011;-65
2023/12/23 23:13:55;;;;;;;;;;;;;;;-0.52;100.00;97827.14;435349;1250;126726;-64
2023/12/23 23:24:00;;;;;;;;;;;;;;;-0.48;100.00;97841.40;436044;1254;126051;-65
2023/12/23 23:34:04;;;;;;;;;;;;;;;-0.43;100.00;97844.13;435256;1254;126689;-64
2023/12/23 23:44:09;;;;;;;;;;;;;;;-0.39;100.00;97849.27;435560;1250;125965;-63
2023/12/23 23:54:14;;;;;;;;;;;;;;;-0.35;100.00;97857.69;435660;1256;125759;-65
